sensor_id;sensor_type;location;lat;lon;timestamp;temperature;humidity
37868;DHT22;24011;48.880;9.190;2022-12-18T00:01:37;22.90;35.60
37868;DHT22;24011;48.880;9.190;2022-12-18T00:04:48;22.80;35.50
37868;DHT22;24011;48.880;9.190;2022-12-18T00:08:00;22.80;35.40
37868;DHT22;24011;48.880;9.190;2022-12-18T00:11:10;22.90;35.50
37868;DHT22;24011;48.880;9.190;2022-12-18T00:14:14;22.80;35.40
37868;DHT22;24011;48.880;9.190;2022-12-18T00:17:20;22.90;35.50
37868;DHT22;24011;48.880;9.190;2022-12-18T00:20:28;22.80;35.40
37868;DHT22;24011;48.880;9.190;2022-12-18T00:23:35;22.80;35.40
37868;DHT22;24011;48.880;9.190;2022-12-18T00:26:50;22.80;35.50
37868;DHT22;24011;48.880;9.190;2022-12-18T00:30:06;22.80;35.50
37868;DHT22;24011;48.880;9.190;2022-12-18T00:33:32;22.80;35.50
37868;DHT22;24011;48.880;9.190;2022-12-18T00:37:14;22.80;35.40
37868;DHT22;24011;48.880;9.190;2022-12-18T00:40:38;22.80;35.40
37868;DHT22;24011;48.880;9.190;2022-12-18T00:44:12;22.80;35.50
37868;DHT22;24011;48.880;9.190;2022-12-18T00:47:32;22.80;35.40
37868;DHT22;24011;48.880;9.190;2022-12-18T00:51:06;22.80;35.40
37868;DHT22;24011;48.880;9.190;2022-12-18T00:54:32;22.80;35.40
37868;DHT22;24011;48.880;9.190;2022-12-18T00:58:06;22.80;35.40
37868;DHT22;24011;48.880;9.190;2022-12-18T01:01:30;22.80;35.40
37868;DHT22;24011;48.880;9.190;2022-12-18T01:04:54;22.70;35.30
37868;DHT22;24011;48.880;9.190;2022-12-18T01:08:20;22.80;35.30
37868;DHT22;24011;48.880;9.190;2022-12-18T01:12:02;22.70;35.30
37868;DHT22;24011;48.880;9.190;2022-12-18T01:15:26;22.70;35.30
37868;DHT22;24011;48.880;9.190;2022-12-18T01:19:02;22.70;35.40
37868;DHT22;24011;48.880;9.190;2022-12-18T01:22:26;22.70;35.40
37868;DHT22;24011;48.880;9.190;2022-12-18T01:25:55;22.70;35.40
37868;DHT22;24011;48.880;9.190;2022-12-18T01:29:26;22.70;35.40
37868;DHT22;24011;48.880;9.190;2022-12-18T01:33:01;22.70;35.40
37868;DHT22;24011;48.880;9.190;2022-12-18T01:36:07;22.70;35.40
37868;DHT22;24011;48.880;9.190;2022-12-18T01:39:19;22.70;35.40
37868;DHT22;24011;48.880;9.190;2022-12-18T01:42:31;22.70;35.40
37868;DHT22;24011;48.880;9.190;2022-12-18T01:45:55;22.70;35.30
37868;DHT22;24011;48.880;9.190;2022-12-18T01:49:07;22.70;35.30
37868;DHT22;24011;48.880;9.190;2022-12-18T01:52:21;22.70;35.40
37868;DHT22;24011;48.880;9.190;2022-12-18T01:55:32;22.70;35.40
37868;DHT22;24011;48.880;9.190;2022-12-18T01:58:51;22.70;35.40
37868;DHT22;24011;48.880;9.190;2022-12-18T02:02:07;22.70;35.40
37868;DHT22;24011;48.880;9.190;2022-12-18T02:05:15;22.60;35.90
37868;DHT22;24011;48.880;9.190;2022-12-18T02:08:21;22.70;35.30
37868;DHT22;24011;48.880;9.190;2022-12-18T02:11:44;22.70;35.30
37868;DHT22;24011;48.880;9.190;2022-12-18T02:14:57;22.70;35.30
37868;DHT22;24011;48.880;9.190;2022-12-18T02:18:20;22.60;35.30
37868;DHT22;24011;48.880;9.190;2022-12-18T02:22:03;22.60;35.30
37868;DHT22;24011;48.880;9.190;2022-12-18T02:29:55;22.60;35.30
37868;DHT22;24011;48.880;9.190;2022-12-18T02:33:49;22.60;35.30
37868;DHT22;24011;48.880;9.190;2022-12-18T02:37:37;22.60;35.40
37868;DHT22;24011;48.880;9.190;2022-12-18T02:41:31;22.50;35.40
37868;DHT22;24011;48.880;9.190;2022-12-18T02:45:50;22.50;35.30
37868;DHT22;24011;48.880;9.190;2022-12-18T02:49:44;22.50;35.40
37868;DHT22;24011;48.880;9.190;2022-12-18T02:53:21;22.60;36.00
37868;DHT22;24011;48.880;9.190;2022-12-18T02:57:14;22.50;35.30
37868;DHT22;24011;48.880;9.190;2022-12-18T03:00:57;22.50;35.30
37868;DHT22;24011;48.880;9.190;2022-12-18T03:05:02;22.60;35.30
37868;DHT22;24011;48.880;9.190;2022-12-18T03:08:38;22.50;35.30
37868;DHT22;24011;48.880;9.190;2022-12-18T03:12:32;22.60;35.30
37868;DHT22;24011;48.880;9.190;2022-12-18T03:16:14;22.50;35.20
37868;DHT22;24011;48.880;9.190;2022-12-18T03:19:56;22.50;35.30
37868;DHT22;24011;48.880;9.190;2022-12-18T03:23:27;22.50;35.30
37868;DHT22;24011;48.880;9.190;2022-12-18T03:27:20;22.60;35.20
37868;DHT22;24011;48.880;9.190;2022-12-18T03:34:38;22.60;35.20
37868;DHT22;24011;48.880;9.190;2022-12-18T03:38:08;22.60;35.10
37868;DHT22;24011;48.880;9.190;2022-12-18T03:42:04;22.50;35.10
37868;DHT22;24011;48.880;9.190;2022-12-18T03:45:16;22.60;35.10
37868;DHT22;24011;48.880;9.190;2022-12-18T04:25:45;22.50;35.00
37868;DHT22;24011;48.880;9.190;2022-12-18T04:29:03;22.50;35.00
37868;DHT22;24011;48.880;9.190;2022-12-18T04:32:09;22.50;35.00
37868;DHT22;24011;48.880;9.190;2022-12-18T04:35:17;22.50;35.00
37868;DHT22;24011;48.880;9.190;2022-12-18T04:38:21;22.50;35.00
37868;DHT22;24011;48.880;9.190;2022-12-18T04:41:44;22.50;35.10
37868;DHT22;24011;48.880;9.190;2022-12-18T04:44:56;22.40;35.10
37868;DHT22;24011;48.880;9.190;2022-12-18T04:48:02;22.40;35.10
37868;DHT22;24011;48.880;9.190;2022-12-18T04:51:11;22.40;35.20
37868;DHT22;24011;48.880;9.190;2022-12-18T04:54:27;22.40;35.20
37868;DHT22;24011;48.880;9.190;2022-12-18T04:57:44;22.40;35.20
37868;DHT22;24011;48.880;9.190;2022-12-18T05:00:53;22.40;35.20
37868;DHT22;24011;48.880;9.190;2022-12-18T05:04:02;22.30;35.20
37868;DHT22;24011;48.880;9.190;2022-12-18T05:07:11;22.30;35.20
37868;DHT22;24011;48.880;9.190;2022-12-18T05:10:15;22.30;35.20
37868;DHT22;24011;48.880;9.190;2022-12-18T05:13:39;22.30;35.20
37868;DHT22;24011;48.880;9.190;2022-12-18T05:16:51;22.40;35.20
37868;DHT22;24011;48.880;9.190;2022-12-18T05:20:03;22.30;35.10
37868;DHT22;24011;48.880;9.190;2022-12-18T05:23:14;22.30;35.10
37868;DHT22;24011;48.880;9.190;2022-12-18T05:26:23;22.30;35.10
37868;DHT22;24011;48.880;9.190;2022-12-18T05:29:33;22.30;35.10
37868;DHT22;24011;48.880;9.190;2022-12-18T05:32:41;22.30;35.10
37868;DHT22;24011;48.880;9.190;2022-12-18T05:35:51;22.30;35.10
37868;DHT22;24011;48.880;9.190;2022-12-18T05:39:21;22.30;35.10
37868;DHT22;24011;48.880;9.190;2022-12-18T05:42:53;22.30;35.10
37868;DHT22;24011;48.880;9.190;2022-12-18T05:46:41;22.30;35.80
37868;DHT22;24011;48.880;9.190;2022-12-18T05:50:09;22.40;35.10
37868;DHT22;24011;48.880;9.190;2022-12-18T05:53:39;22.30;35.10
37868;DHT22;24011;48.880;9.190;2022-12-18T05:56:59;22.40;35.10
37868;DHT22;24011;48.880;9.190;2022-12-18T06:00:33;22.30;35.00
37868;DHT22;24011;48.880;9.190;2022-12-18T06:04:17;22.40;35.00
37868;DHT22;24011;48.880;9.190;2022-12-18T06:07:35;22.40;35.00
37868;DHT22;24011;48.880;9.190;2022-12-18T06:10:48;22.40;35.00
37868;DHT22;24011;48.880;9.190;2022-12-18T06:13:57;22.40;35.00
37868;DHT22;24011;48.880;9.190;2022-12-18T06:17:00;22.40;35.00
37868;DHT22;24011;48.880;9.190;2022-12-18T06:20:17;22.40;35.00
37868;DHT22;24011;48.880;9.190;2022-12-18T06:23:29;22.30;35.00
37868;DHT22;24011;48.880;9.190;2022-12-18T06:26:41;22.30;35.00
37868;DHT22;24011;48.880;9.190;2022-12-18T06:29:48;22.30;35.00
37868;DHT22;24011;48.880;9.190;2022-12-18T06:33:00;22.30;34.90
37868;DHT22;24011;48.880;9.190;2022-12-18T06:36:12;22.30;34.80
37868;DHT22;24011;48.880;9.190;2022-12-18T06:39:24;22.30;34.80
37868;DHT22;24011;48.880;9.190;2022-12-18T06:42:33;22.30;34.80
37868;DHT22;24011;48.880;9.190;2022-12-18T06:46:05;22.40;34.80
37868;DHT22;24011;48.880;9.190;2022-12-18T06:49:39;22.40;34.80
37868;DHT22;24011;48.880;9.190;2022-12-18T06:53:06;22.30;34.80
37868;DHT22;24011;48.880;9.190;2022-12-18T06:56:33;22.30;34.80
37868;DHT22;24011;48.880;9.190;2022-12-18T06:59:54;22.30;34.70
37868;DHT22;24011;48.880;9.190;2022-12-18T07:03:27;22.30;34.70
37868;DHT22;24011;48.880;9.190;2022-12-18T07:06:51;22.40;34.80
37868;DHT22;24011;48.880;9.190;2022-12-18T07:10:45;22.40;34.80
37868;DHT22;24011;48.880;9.190;2022-12-18T07:14:12;22.30;34.70
37868;DHT22;24011;48.880;9.190;2022-12-18T07:17:48;22.30;34.70
37868;DHT22;24011;48.880;9.190;2022-12-18T07:21:04;22.30;34.60
37868;DHT22;24011;48.880;9.190;2022-12-18T07:24:40;22.30;34.80
37868;DHT22;24011;48.880;9.190;2022-12-18T07:28:06;22.30;34.70
37868;DHT22;24011;48.880;9.190;2022-12-18T07:31:48;22.30;34.70
37868;DHT22;24011;48.880;9.190;2022-12-18T07:35:06;22.40;34.70
37868;DHT22;24011;48.880;9.190;2022-12-18T07:38:34;22.30;34.70
37868;DHT22;24011;48.880;9.190;2022-12-18T07:41:54;22.30;34.80
37868;DHT22;24011;48.880;9.190;2022-12-18T07:45:40;22.30;34.80
37868;DHT22;24011;48.880;9.190;2022-12-18T07:49:18;22.30;34.80
37868;DHT22;24011;48.880;9.190;2022-12-18T07:52:54;22.30;34.80
37868;DHT22;24011;48.880;9.190;2022-12-18T07:56:10;22.30;34.70
37868;DHT22;24011;48.880;9.190;2022-12-18T07:59:40;22.30;34.70
37868;DHT22;24011;48.880;9.190;2022-12-18T08:03:08;22.40;34.70
37868;DHT22;24011;48.880;9.190;2022-12-18T08:06:40;22.40;34.70
37868;DHT22;24011;48.880;9.190;2022-12-18T08:10:04;22.40;34.60
37868;DHT22;24011;48.880;9.190;2022-12-18T08:13:34;22.40;34.70
37868;DHT22;24011;48.880;9.190;2022-12-18T08:17:12;22.40;34.70
37868;DHT22;24011;48.880;9.190;2022-12-18T08:20:55;22.50;34.60
37868;DHT22;24011;48.880;9.190;2022-12-18T08:24:48;22.50;34.60
37868;DHT22;24011;48.880;9.190;2022-12-18T08:29:31;22.50;34.50
37868;DHT22;24011;48.880;9.190;2022-12-18T08:33:43;22.60;34.40
37868;DHT22;24011;48.880;9.190;2022-12-18T09:25:19;23.30;33.30
37868;DHT22;24011;48.880;9.190;2022-12-18T09:29:25;23.30;33.40
37868;DHT22;24011;48.880;9.190;2022-12-18T09:33:25;23.30;33.30
37868;DHT22;24011;48.880;9.190;2022-12-18T09:38:01;23.30;33.20
37868;DHT22;24011;48.880;9.190;2022-12-18T09:57:59;23.40;32.90
37868;DHT22;24011;48.880;9.190;2022-12-18T10:01:26;23.40;33.00
37868;DHT22;24011;48.880;9.190;2022-12-18T10:04:41;23.40;32.90
37868;DHT22;24011;48.880;9.190;2022-12-18T10:08:12;23.40;33.00
37868;DHT22;24011;48.880;9.190;2022-12-18T10:12:05;23.40;32.90
37868;DHT22;24011;48.880;9.190;2022-12-18T10:15:54;23.50;32.80
37868;DHT22;24011;48.880;9.190;2022-12-18T10:20:05;23.50;32.70
37868;DHT22;24011;48.880;9.190;2022-12-18T10:23:54;23.50;32.70
37868;DHT22;24011;48.880;9.190;2022-12-18T10:28:00;23.50;32.60
37868;DHT22;24011;48.880;9.190;2022-12-18T10:31:47;23.50;32.70
37868;DHT22;24011;48.880;9.190;2022-12-18T10:35:35;23.50;32.60
37868;DHT22;24011;48.880;9.190;2022-12-18T10:39:17;23.50;32.60
37868;DHT22;24011;48.880;9.190;2022-12-18T10:42:47;23.50;32.70
37868;DHT22;24011;48.880;9.190;2022-12-18T10:46:17;23.50;32.70
37868;DHT22;24011;48.880;9.190;2022-12-18T10:49:42;23.50;32.60
37868;DHT22;24011;48.880;9.190;2022-12-18T10:53:14;23.50;32.60
37868;DHT22;24011;48.880;9.190;2022-12-18T10:56:41;23.60;32.60
37868;DHT22;24011;48.880;9.190;2022-12-18T11:03:58;23.60;32.60
37868;DHT22;24011;48.880;9.190;2022-12-18T11:07:23;23.60;32.60
37868;DHT22;24011;48.880;9.190;2022-12-18T11:10:47;23.60;32.60
37868;DHT22;24011;48.880;9.190;2022-12-18T11:14:17;23.60;32.60
37868;DHT22;24011;48.880;9.190;2022-12-18T11:17:41;23.60;32.70
37868;DHT22;24011;48.880;9.190;2022-12-18T11:21:11;23.60;32.60
37868;DHT22;24011;48.880;9.190;2022-12-18T11:24:53;23.60;32.60
37868;DHT22;24011;48.880;9.190;2022-12-18T11:31:41;23.60;32.60
37868;DHT22;24011;48.880;9.190;2022-12-18T11:35:18;23.60;32.60
37868;DHT22;24011;48.880;9.190;2022-12-18T11:38:53;23.70;32.50
37868;DHT22;24011;48.880;9.190;2022-12-18T11:42:36;23.70;32.40
37868;DHT22;24011;48.880;9.190;2022-12-18T11:46:06;23.70;32.40
37868;DHT22;24011;48.880;9.190;2022-12-18T11:49:35;23.70;32.40
37868;DHT22;24011;48.880;9.190;2022-12-18T11:53:11;23.70;32.50
37868;DHT22;24011;48.880;9.190;2022-12-18T11:56:36;23.70;32.40
37868;DHT22;24011;48.880;9.190;2022-12-18T12:00:12;23.70;32.40
37868;DHT22;24011;48.880;9.190;2022-12-18T12:04:00;23.70;32.40
37868;DHT22;24011;48.880;9.190;2022-12-18T12:07:42;23.70;32.40
37868;DHT22;24011;48.880;9.190;2022-12-18T12:11:19;23.70;32.40
37868;DHT22;24011;48.880;9.190;2022-12-18T12:18:49;23.70;32.40
37868;DHT22;24011;48.880;9.190;2022-12-18T12:22:30;23.70;32.50
37868;DHT22;24011;48.880;9.190;2022-12-18T12:25:55;23.60;32.40
37868;DHT22;24011;48.880;9.190;2022-12-18T12:29:25;23.70;32.50
37868;DHT22;24011;48.880;9.190;2022-12-18T12:33:07;23.70;32.40
37868;DHT22;24011;48.880;9.190;2022-12-18T12:36:44;23.70;32.50
37868;DHT22;24011;48.880;9.190;2022-12-18T12:40:00;23.70;32.50
37868;DHT22;24011;48.880;9.190;2022-12-18T12:43:54;23.70;32.50
37868;DHT22;24011;48.880;9.190;2022-12-18T12:47:19;23.70;32.40
37868;DHT22;24011;48.880;9.190;2022-12-18T12:50:42;23.70;32.40
37868;DHT22;24011;48.880;9.190;2022-12-18T12:54:24;23.80;32.40
37868;DHT22;24011;48.880;9.190;2022-12-18T12:58:18;23.80;32.30
37868;DHT22;24011;48.880;9.190;2022-12-18T13:01:54;23.80;32.20
37868;DHT22;24011;48.880;9.190;2022-12-18T13:05:31;23.80;32.20
37868;DHT22;24011;48.880;9.190;2022-12-18T13:13:18;23.90;32.10
37868;DHT22;24011;48.880;9.190;2022-12-18T13:16:42;23.90;32.20
37868;DHT22;24011;48.880;9.190;2022-12-18T13:20:18;23.80;32.10
37868;DHT22;24011;48.880;9.190;2022-12-18T13:23:54;23.70;32.20
37868;DHT22;24011;48.880;9.190;2022-12-18T13:31:57;23.80;32.10
37868;DHT22;24011;48.880;9.190;2022-12-18T13:38:55;23.80;32.30
37868;DHT22;24011;48.880;9.190;2022-12-18T13:42:42;23.80;32.20
37868;DHT22;24011;48.880;9.190;2022-12-18T13:50:20;23.70;32.20
37868;DHT22;24011;48.880;9.190;2022-12-18T13:54:00;23.70;32.10
37868;DHT22;24011;48.880;9.190;2022-12-18T13:58:06;23.70;32.20
37868;DHT22;24011;48.880;9.190;2022-12-18T15:44:30;23.50;32.20
37868;DHT22;24011;48.880;9.190;2022-12-18T15:48:07;23.50;32.30
37868;DHT22;24011;48.880;9.190;2022-12-18T15:51:42;23.50;32.30
37868;DHT22;24011;48.880;9.190;2022-12-18T15:55:13;23.50;32.30
37868;DHT22;24011;48.880;9.190;2022-12-18T15:58:42;23.50;32.30
37868;DHT22;24011;48.880;9.190;2022-12-18T16:02:24;23.40;32.40
37868;DHT22;24011;48.880;9.190;2022-12-18T16:05:49;23.40;32.30
37868;DHT22;24011;48.880;9.190;2022-12-18T16:09:18;23.40;32.40
37868;DHT22;24011;48.880;9.190;2022-12-18T16:12:48;23.40;32.40
37868;DHT22;24011;48.880;9.190;2022-12-18T16:16:18;23.40;32.40
37868;DHT22;24011;48.880;9.190;2022-12-18T16:19:50;23.40;32.40
37868;DHT22;24011;48.880;9.190;2022-12-18T16:23:24;23.30;32.40
37868;DHT22;24011;48.880;9.190;2022-12-18T16:26:55;23.30;32.40
37868;DHT22;24011;48.880;9.190;2022-12-18T16:30:25;23.30;32.40
37868;DHT22;24011;48.880;9.190;2022-12-18T16:34:08;23.30;32.40
37868;DHT22;24011;48.880;9.190;2022-12-18T16:37:50;23.30;32.50
37868;DHT22;24011;48.880;9.190;2022-12-18T16:41:24;23.30;32.50
37868;DHT22;24011;48.880;9.190;2022-12-18T16:44:56;23.20;32.50
37868;DHT22;24011;48.880;9.190;2022-12-18T16:48:26;23.20;32.60
37868;DHT22;24011;48.880;9.190;2022-12-18T16:52:01;23.10;32.60
37868;DHT22;24011;48.880;9.190;2022-12-18T16:55:32;23.10;32.60
37868;DHT22;24011;48.880;9.190;2022-12-18T16:59:07;23.10;32.60
37868;DHT22;24011;48.880;9.190;2022-12-18T17:02:26;23.10;32.60
37868;DHT22;24011;48.880;9.190;2022-12-18T17:05:56;23.10;32.60
37868;DHT22;24011;48.880;9.190;2022-12-18T17:09:26;23.10;32.60
37868;DHT22;24011;48.880;9.190;2022-12-18T17:13:02;23.10;32.70
37868;DHT22;24011;48.880;9.190;2022-12-18T17:16:25;23.10;32.60
37868;DHT22;24011;48.880;9.190;2022-12-18T17:20:08;23.10;32.60
37868;DHT22;24011;48.880;9.190;2022-12-18T17:23:26;23.10;32.70
37868;DHT22;24011;48.880;9.190;2022-12-18T17:26:55;23.10;32.70
37868;DHT22;24011;48.880;9.190;2022-12-18T17:30:25;23.10;32.70
37868;DHT22;24011;48.880;9.190;2022-12-18T17:33:50;23.10;32.60
37868;DHT22;24011;48.880;9.190;2022-12-18T17:37:13;23.10;32.70
37868;DHT22;24011;48.880;9.190;2022-12-18T17:40:38;23.00;32.70
37868;DHT22;24011;48.880;9.190;2022-12-18T17:44:03;23.00;32.70
37868;DHT22;24011;48.880;9.190;2022-12-18T17:47:50;23.00;32.70
37868;DHT22;24011;48.880;9.190;2022-12-18T17:51:13;23.00;32.70
37868;DHT22;24011;48.880;9.190;2022-12-18T17:54:38;23.00;32.70
37868;DHT22;24011;48.880;9.190;2022-12-18T17:58:03;23.00;32.70
37868;DHT22;24011;48.880;9.190;2022-12-18T18:01:33;23.00;32.70
37868;DHT22;24011;48.880;9.190;2022-12-18T18:04:57;22.90;32.60
37868;DHT22;24011;48.880;9.190;2022-12-18T18:08:27;23.00;32.60
37868;DHT22;24011;48.880;9.190;2022-12-18T18:12:03;23.00;32.60
37868;DHT22;24011;48.880;9.190;2022-12-18T18:15:27;22.90;32.70
37868;DHT22;24011;48.880;9.190;2022-12-18T18:18:31;23.00;32.60
37868;DHT22;24011;48.880;9.190;2022-12-18T18:21:51;22.90;32.60
37868;DHT22;24011;48.880;9.190;2022-12-18T18:25:02;22.90;32.60
37868;DHT22;24011;48.880;9.190;2022-12-18T18:28:13;22.90;32.70
37868;DHT22;24011;48.880;9.190;2022-12-18T18:31:25;22.90;32.60
37868;DHT22;24011;48.880;9.190;2022-12-18T18:34:43;22.90;32.70
37868;DHT22;24011;48.880;9.190;2022-12-18T18:38:07;22.90;32.70
37868;DHT22;24011;48.880;9.190;2022-12-18T18:41:15;22.90;32.70
37868;DHT22;24011;48.880;9.190;2022-12-18T18:44:26;22.80;32.60
37868;DHT22;24011;48.880;9.190;2022-12-18T18:47:37;22.80;32.60
37868;DHT22;24011;48.880;9.190;2022-12-18T18:50:55;22.80;32.60
37868;DHT22;24011;48.880;9.190;2022-12-18T18:54:08;22.90;32.70
37868;DHT22;24011;48.880;9.190;2022-12-18T18:57:14;22.80;32.60
37868;DHT22;24011;48.880;9.190;2022-12-18T19:00:25;22.80;32.70
37868;DHT22;24011;48.880;9.190;2022-12-18T19:03:55;22.80;32.60
37868;DHT22;24011;48.880;9.190;2022-12-18T19:07:37;22.80;32.60
37868;DHT22;24011;48.880;9.190;2022-12-18T19:11:15;22.80;32.60
37868;DHT22;24011;48.880;9.190;2022-12-18T19:14:45;22.80;32.60
37868;DHT22;24011;48.880;9.190;2022-12-18T19:18:14;22.80;32.60
37868;DHT22;24011;48.880;9.190;2022-12-18T19:21:37;22.80;32.60
37868;DHT22;24011;48.880;9.190;2022-12-18T19:25:07;22.80;32.50
37868;DHT22;24011;48.880;9.190;2022-12-18T19:28:39;22.80;32.60
37868;DHT22;24011;48.880;9.190;2022-12-18T19:32:13;22.80;32.50
37868;DHT22;24011;48.880;9.190;2022-12-18T19:35:39;22.80;32.50
37868;DHT22;24011;48.880;9.190;2022-12-18T19:39:14;22.70;32.60
37868;DHT22;24011;48.880;9.190;2022-12-18T19:42:50;22.70;32.60
37868;DHT22;24011;48.880;9.190;2022-12-18T20:03:08;22.70;32.40
37868;DHT22;24011;48.880;9.190;2022-12-18T20:07:26;22.70;32.30
37868;DHT22;24011;48.880;9.190;2022-12-18T20:11:32;22.70;32.40
37868;DHT22;24011;48.880;9.190;2022-12-18T20:15:32;22.70;32.40
37868;DHT22;24011;48.880;9.190;2022-12-18T20:35:33;22.70;32.40
37868;DHT22;24011;48.880;9.190;2022-12-18T20:39:44;22.60;32.40
37868;DHT22;24011;48.880;9.190;2022-12-18T20:43:44;22.70;32.50
37868;DHT22;24011;48.880;9.190;2022-12-18T20:47:52;22.70;32.50
37868;DHT22;24011;48.880;9.190;2022-12-18T21:40:15;22.50;32.50
37868;DHT22;24011;48.880;9.190;2022-12-18T21:43:45;22.60;32.50
37868;DHT22;24011;48.880;9.190;2022-12-18T21:47:13;22.60;32.50
37868;DHT22;24011;48.880;9.190;2022-12-18T21:50:37;22.50;32.50
37868;DHT22;24011;48.880;9.190;2022-12-18T21:54:21;22.50;32.50
37868;DHT22;24011;48.880;9.190;2022-12-18T21:58:13;22.50;32.50
37868;DHT22;24011;48.880;9.190;2022-12-18T22:01:45;22.50;32.50
37868;DHT22;24011;48.880;9.190;2022-12-18T22:05:21;22.50;32.50
37868;DHT22;24011;48.880;9.190;2022-12-18T22:08:39;22.50;32.50
37868;DHT22;24011;48.880;9.190;2022-12-18T22:11:32;22.50;32.50
37868;DHT22;24011;48.880;9.190;2022-12-18T22:14:25;22.50;32.50
37868;DHT22;24011;48.880;9.190;2022-12-18T22:17:19;22.50;32.50
37868;DHT22;24011;48.880;9.190;2022-12-18T22:20:17;22.50;32.50
37868;DHT22;24011;48.880;9.190;2022-12-18T22:23:13;22.50;32.50
37868;DHT22;24011;48.880;9.190;2022-12-18T22:26:07;22.50;32.50
37868;DHT22;24011;48.880;9.190;2022-12-18T22:29:06;22.50;32.60
37868;DHT22;24011;48.880;9.190;2022-12-18T22:32:13;22.50;32.50
37868;DHT22;24011;48.880;9.190;2022-12-18T22:35:13;22.50;32.50
37868;DHT22;24011;48.880;9.190;2022-12-18T22:38:11;22.40;32.60
37868;DHT22;24011;48.880;9.190;2022-12-18T22:41:13;22.40;32.60
37868;DHT22;24011;48.880;9.190;2022-12-18T22:44:08;22.40;32.60
37868;DHT22;24011;48.880;9.190;2022-12-18T22:47:01;22.40;32.60
37868;DHT22;24011;48.880;9.190;2022-12-18T22:50:08;22.40;32.60
37868;DHT22;24011;48.880;9.190;2022-12-18T22:54:01;22.40;32.60
37868;DHT22;24011;48.880;9.190;2022-12-18T22:57:31;22.40;32.60
37868;DHT22;24011;48.880;9.190;2022-12-18T23:01:01;22.40;32.60
37868;DHT22;24011;48.880;9.190;2022-12-18T23:04:31;22.50;32.60
37868;DHT22;24011;48.880;9.190;2022-12-18T23:08:01;22.40;32.60
37868;DHT22;24011;48.880;9.190;2022-12-18T23:11:28;22.50;32.60
37868;DHT22;24011;48.880;9.190;2022-12-18T23:14:52;22.40;32.60
37868;DHT22;24011;48.880;9.190;2022-12-18T23:18:22;22.50;32.60
37868;DHT22;24011;48.880;9.190;2022-12-18T23:21:26;22.50;32.50
37868;DHT22;24011;48.880;9.190;2022-12-18T23:24:38;22.40;32.50
37868;DHT22;24011;48.880;9.190;2022-12-18T23:27:43;22.50;32.50
37868;DHT22;24011;48.880;9.190;2022-12-18T23:31:01;22.50;32.50
37868;DHT22;24011;48.880;9.190;2022-12-18T23:34:08;22.50;32.50
37868;DHT22;24011;48.880;9.190;2022-12-18T23:37:20;22.50;32.60
37868;DHT22;24011;48.880;9.190;2022-12-18T23:40:46;22.50;32.50
37868;DHT22;24011;48.880;9.190;2022-12-18T23:43:56;22.40;32.50
37868;DHT22;24011;48.880;9.190;2022-12-18T23:47:08;22.40;32.50
37868;DHT22;24011;48.880;9.190;2022-12-18T23:50:14;22.50;32.50
37868;DHT22;24011;48.880;9.190;2022-12-18T23:53:19;22.50;32.50
37868;DHT22;24011;48.880;9.190;2022-12-18T23:56:26;22.40;32.50
37868;DHT22;24011;48.880;9.190;2022-12-18T23:59:31;22.50;32.50
